Time;durP1;ratioP1;P1;durP2;ratioP2;P2;SDS_P1;SDS_P2;PMS_P1;PMS_P2;Temp;Humidity;BMP_temperature;BMP_pressure;BME280_temperature;BME280_humidity;BME280_pressure;Samples;Min_cycle;Max_cycle;Signal;HPM_P1;HPM_P2
2020/12/25 00:02:23;;;;;;;5.47;4.50;;;10.50;68.10;;;;;;5006042;28;20245;-66
2020/12/25 00:04:48;;;;;;;5.93;4.25;;;10.50;68.00;;;;;;5006135;28;20463;-67
2020/12/25 00:07:14;;;;;;;5.50;4.30;;;10.50;68.20;;;;;;5006078;28;20022;-66
2020/12/25 00:09:40;;;;;;;6.63;4.38;;;10.50;68.10;;;;;;5005994;28;20057;-66
2020/12/25 00:12:08;;;;;;;4.70;4.20;;;10.50;68.00;;;;;;5005951;28;20027;-67
2020/12/25 00:14:34;;;;;;;7.82;4.53;;;10.50;68.10;;;;;;5005935;28;20360;-65
2020/12/25 00:17:00;;;;;;;6.32;4.43;;;10.50;69.10;;;;;;5005737;28;20042;-65
2020/12/25 00:19:26;;;;;;;5.03;3.72;;;10.50;68.30;;;;;;5005856;28;20314;-66
2020/12/25 00:21:52;;;;;;;5.95;4.35;;;10.50;68.60;;;;;;5005819;28;20026;-66
2020/12/25 00:24:18;;;;;;;5.00;4.40;;;10.40;68.60;;;;;;5005750;28;20385;-67
2020/12/25 00:26:44;;;;;;;5.93;4.45;;;10.50;68.80;;;;;;5005688;28;20033;-65
2020/12/25 00:29:09;;;;;;;6.05;4.50;;;10.50;68.40;;;;;;5005658;28;20340;-66
2020/12/25 00:31:38;;;;;;;6.00;4.63;;;10.50;68.20;;;;;;5005609;28;20214;-63
2020/12/25 00:34:07;;;;;;;6.25;4.78;;;10.50;68.30;;;;;;5005601;28;20126;-67
2020/12/25 00:36:44;;;;;;;5.43;4.47;;;10.50;68.20;;;;;;5005511;28;20033;-64
2020/12/25 00:39:13;;;;;;;5.88;5.03;;;10.50;68.50;;;;;;5005507;28;20341;-66
2020/12/25 00:41:45;;;;;;;;;;;10.50;68.50;;;;;;5005925;28;20030;-67
2020/12/25 00:44:11;;;;;;;5.93;4.45;;;10.50;68.60;;;;;;5005303;28;19913;-66
2020/12/25 00:46:37;;;;;;;5.50;3.90;;;10.50;68.40;;;;;;5005390;28;20298;-67
2020/12/25 00:49:03;;;;;;;6.13;4.32;;;10.50;68.50;;;;;;5005243;28;20184;-64
2020/12/25 00:51:29;;;;;;;5.18;4.07;;;10.50;68.50;;;;;;5005286;28;20034;-62
2020/12/25 00:53:55;;;;;;;5.35;3.70;;;10.50;68.50;;;;;;5004357;28;20026;-66
2020/12/25 00:56:21;;;;;;;6.25;4.30;;;10.50;68.50;;;;;;5005167;28;20038;-67
2020/12/25 00:58:46;;;;;;;6.88;3.90;;;10.40;68.40;;;;;;5005147;28;20086;-67
2020/12/25 01:01:13;;;;;;;5.90;4.03;;;10.50;68.50;;;;;;5005086;28;20033;-69
2020/12/25 01:03:41;;;;;;;5.90;4.20;;;10.50;68.70;;;;;;5004970;28;20034;-61
2020/12/25 01:06:14;;;;;;;5.75;4.60;;;10.50;68.50;;;;;;5004979;28;20018;-68
2020/12/25 01:08:40;;;;;;;5.68;3.72;;;10.50;68.30;;;;;;5005004;28;20085;-68
2020/12/25 01:11:07;;;;;;;5.20;4.05;;;10.50;68.30;;;;;;5004929;28;20367;-66
2020/12/25 01:13:34;;;;;;;6.32;4.32;;;10.50;68.40;;;;;;5004911;28;20230;-65
2020/12/25 01:16:10;;;;;;;4.63;3.55;;;10.50;68.40;;;;;;5004837;28;20019;-66
2020/12/25 01:18:36;;;;;;;7.05;4.50;;;10.50;68.60;;;;;;5004860;28;20203;-66
2020/12/25 01:21:03;;;;;;;5.18;4.18;;;10.50;68.50;;;;;;5004770;28;20217;-67
2020/12/25 01:23:29;;;;;;;7.90;4.82;;;10.50;68.60;;;;;;5004639;28;20026;-67
2020/12/25 01:25:55;;;;;;;6.00;4.82;;;10.50;68.60;;;;;;5004639;28;20328;-66
2020/12/25 01:28:21;;;;;;;6.25;4.10;;;10.50;68.60;;;;;;5004605;28;20030;-67
2020/12/25 01:30:47;;;;;;;5.97;3.67;;;10.50;68.70;;;;;;5004542;28;20025;-65
2020/12/25 01:33:12;;;;;;;5.05;4.18;;;10.50;68.30;;;;;;5004517;28;20026;-65
2020/12/25 01:35:38;;;;;;;6.70;4.60;;;10.50;68.20;;;;;;5004443;28;20520;-66
2020/12/25 01:38:04;;;;;;;5.65;4.00;;;10.50;68.30;;;;;;5004420;28;20069;-68
2020/12/25 01:40:30;;;;;;;3.80;3.40;;;10.50;68.30;;;;;;5004392;28;20037;-68
2020/12/25 01:42:56;;;;;;;6.18;4.20;;;10.50;68.40;;;;;;5003117;28;20081;-67
2020/12/25 01:45:22;;;;;;;5.85;4.20;;;10.50;68.40;;;;;;5004271;28;20023;-66
2020/12/25 01:47:52;;;;;;;5.22;4.22;;;10.50;68.30;;;;;;5004250;28;20022;-66
2020/12/25 01:50:18;;;;;;;5.72;3.78;;;10.50;68.30;;;;;;5004201;28;20037;-67
2020/12/25 01:52:46;;;;;;;7.20;5.18;;;10.50;68.40;;;;;;5004103;28;20297;-65
2020/12/25 01:55:13;;;;;;;5.15;3.72;;;10.50;68.50;;;;;;5004044;28;20018;-67
2020/12/25 01:57:40;;;;;;;5.18;4.15;;;10.50;68.40;;;;;;5004081;28;20034;-63
2020/12/25 02:00:07;;;;;;;4.72;4.18;;;10.50;68.40;;;;;;5003985;28;20037;-67
2020/12/25 02:02:32;;;;;;;5.50;4.45;;;10.50;68.30;;;;;;5003863;28;20030;-63
2020/12/25 02:04:59;;;;;;;5.30;4.28;;;10.50;68.50;;;;;;5003492;28;20022;-66
2020/12/25 02:07:24;;;;;;;6.97;4.15;;;10.50;68.50;;;;;;5003845;28;20026;-68
2020/12/25 02:09:50;;;;;;;4.75;4.03;;;10.50;68.50;;;;;;5003807;28;20041;-68
2020/12/25 02:12:16;;;;;;;4.63;3.67;;;10.50;68.50;;;;;;5003815;28;20041;-68
2020/12/25 02:14:42;;;;;;;4.82;3.67;;;10.50;68.40;;;;;;5003733;28;20121;-68
2020/12/25 02:17:08;;;;;;;6.85;4.10;;;10.50;68.10;;;;;;5003538;28;20257;-68
2020/12/25 02:19:38;;;;;;;6.30;4.63;;;10.60;68.30;;;;;;5003609;28;20038;-67
2020/12/25 02:22:04;;;;;;;4.75;3.78;;;10.60;68.40;;;;;;5003558;28;20095;-66
2020/12/25 02:24:30;;;;;;;4.78;3.88;;;10.50;68.30;;;;;;5003482;28;20033;-68
2020/12/25 02:26:56;;;;;;;5.00;4.32;;;10.50;68.30;;;;;;5003494;28;20210;-68
2020/12/25 02:29:21;;;;;;;5.55;4.25;;;10.50;68.50;;;;;;5003419;28;20022;-68
2020/12/25 02:31:47;;;;;;;5.05;3.95;;;10.50;68.40;;;;;;5003408;28;20026;-67
2020/12/25 02:34:13;;;;;;;5.40;4.20;;;10.50;68.50;;;;;;5003290;28;20042;-67
2020/12/25 02:36:38;;;;;;;4.85;3.78;;;10.50;68.50;;;;;;5003334;28;20037;-68
2020/12/25 02:39:05;;;;;;;4.38;3.85;;;10.50;68.30;;;;;;5003284;28;20030;-68
2020/12/25 02:41:31;;;;;;;3.88;3.00;;;10.50;68.20;;;;;;5003211;28;20030;-67
2020/12/25 02:43:57;;;;;;;4.88;3.63;;;10.50;68.30;;;;;;5003139;28;20026;-68
2020/12/25 02:46:25;;;;;;;5.43;3.78;;;10.50;68.30;;;;;;5003159;28;20061;-66
2020/12/25 02:48:51;;;;;;;5.75;4.05;;;10.60;68.50;;;;;;5003127;28;20022;-68
2020/12/25 02:51:18;;;;;;;4.25;3.65;;;10.50;68.40;;;;;;5003039;28;20053;-68
2020/12/25 02:53:45;;;;;;;5.50;4.35;;;10.60;68.40;;;;;;5003012;28;20117;-67
2020/12/25 02:56:19;;;;;;;5.70;3.95;;;10.60;68.40;;;;;;5002959;28;20037;-68
2020/12/25 02:58:45;;;;;;;4.63;3.88;;;10.60;68.50;;;;;;5002919;28;20322;-67
2020/12/25 03:01:13;;;;;;;4.68;3.75;;;10.60;68.40;;;;;;5002893;28;20033;-68
2020/12/25 03:03:40;;;;;;;4.78;3.67;;;10.50;68.30;;;;;;5001665;28;20026;-66
2020/12/25 03:06:10;;;;;;;4.90;4.00;;;10.50;68.30;;;;;;5002870;28;20252;-68
2020/12/25 03:08:38;;;;;;;4.22;3.63;;;10.50;68.30;;;;;;5002863;28;20027;-67
2020/12/25 03:11:05;;;;;;;5.95;4.05;;;10.50;68.30;;;;;;5002753;28;20025;-68
2020/12/25 03:13:30;;;;;;;6.28;4.05;;;10.50;68.40;;;;;;5002754;28;20384;-67
2020/12/25 03:15:56;;;;;;;4.38;3.42;;;10.50;68.60;;;;;;5002011;28;20022;-68
2020/12/25 03:18:22;;;;;;;6.15;4.38;;;10.50;68.40;;;;;;5002570;28;20073;-68
2020/12/25 03:20:48;;;;;;;4.72;3.78;;;10.50;68.60;;;;;;5002694;28;20026;-68
2020/12/25 03:23:14;;;;;;;4.63;3.55;;;10.50;68.10;;;;;;5002552;28;20030;-69
2020/12/25 03:25:40;;;;;;;4.70;3.92;;;10.60;68.10;;;;;;5002593;28;20094;-66
2020/12/25 03:28:07;;;;;;;4.03;3.25;;;10.60;68.50;;;;;;5002586;28;20041;-68
2020/12/25 03:30:33;;;;;;;5.13;3.80;;;10.60;68.50;;;;;;5002542;28;20015;-66
2020/12/25 03:32:59;;;;;;;4.45;3.70;;;10.50;68.50;;;;;;5002555;28;20089;-68
2020/12/25 03:35:24;;;;;;;5.60;4.00;;;10.50;68.50;;;;;;5002580;28;20318;-68
2020/12/25 03:37:50;;;;;;;4.68;3.88;;;10.60;68.50;;;;;;5002463;28;20033;-68
2020/12/25 03:40:16;;;;;;;4.75;4.15;;;10.60;68.50;;;;;;5002526;28;20195;-68
2020/12/25 03:42:43;;;;;;;5.43;3.88;;;10.60;68.40;;;;;;5002402;28;20022;-68
2020/12/25 03:45:09;;;;;;;5.15;3.85;;;10.50;68.30;;;;;;5002481;28;20042;-67
2020/12/25 03:47:35;;;;;;;5.35;4.05;;;10.60;68.40;;;;;;5002422;28;20129;-68
2020/12/25 03:50:01;;;;;;;4.63;3.65;;;10.50;68.30;;;;;;5002417;28;20045;-67
2020/12/25 03:52:27;;;;;;;4.30;3.30;;;10.60;68.50;;;;;;5002366;28;20036;-68
2020/12/25 03:54:52;;;;;;;6.32;3.53;;;10.60;68.40;;;;;;5002366;28;20037;-65
2020/12/25 03:57:18;;;;;;;5.30;4.10;;;10.60;68.30;;;;;;5002342;28;20378;-68
2020/12/25 03:59:44;;;;;;;4.72;3.92;;;10.60;68.40;;;;;;5002325;28;20030;-68
2020/12/25 04:02:10;;;;;;;4.13;3.50;;;10.50;68.40;;;;;;5002276;28;20043;-69
2020/12/25 04:04:35;;;;;;;4.35;3.47;;;10.60;68.50;;;;;;5002205;28;20097;-67
2020/12/25 04:07:01;;;;;;;4.32;3.80;;;10.60;68.40;;;;;;5002252;28;20046;-66
2020/12/25 04:09:27;;;;;;;4.70;3.50;;;10.60;68.40;;;;;;5002233;28;20261;-68
2020/12/25 04:11:53;;;;;;;4.03;3.58;;;10.60;68.40;;;;;;5002208;28;20018;-65
2020/12/25 04:14:19;;;;;;;4.13;3.60;;;10.60;68.60;;;;;;5002228;28;20034;-68
2020/12/25 04:16:45;;;;;;;4.75;3.72;;;10.50;68.40;;;;;;5002173;28;20041;-68
2020/12/25 04:19:11;;;;;;;5.57;4.00;;;10.50;68.50;;;;;;5002158;28;20069;-67
2020/12/25 04:21:39;;;;;;;5.28;3.33;;;10.50;68.30;;;;;;5002092;28;20029;-68
2020/12/25 04:24:05;;;;;;;4.53;3.70;;;10.50;68.10;;;;;;5000826;28;20195;-67
2020/12/25 04:26:30;;;;;;;3.92;3.25;;;10.50;68.30;;;;;;5002095;28;20033;-67
2020/12/25 04:28:56;;;;;;;3.88;3.03;;;10.60;68.10;;;;;;5005233;28;20053;-68
2020/12/25 04:31:25;;;;;;;3.58;2.97;;;10.60;68.20;;;;;;5005632;28;20018;-68
2020/12/25 04:33:52;;;;;;;3.78;3.28;;;10.60;68.40;;;;;;5005615;28;20026;-66
2020/12/25 04:36:19;;;;;;;4.63;3.65;;;10.60;68.20;;;;;;5004400;28;20018;-67
2020/12/25 04:38:45;;;;;;;3.70;3.13;;;10.60;68.30;;;;;;5005525;28;20125;-67
2020/12/25 04:41:11;;;;;;;3.83;3.38;;;10.60;68.20;;;;;;5005514;28;20109;-67
2020/12/25 04:43:41;;;;;;;4.07;3.33;;;10.60;68.10;;;;;;5005345;28;20022;-67
2020/12/25 04:46:08;;;;;;;4.25;3.33;;;10.60;68.30;;;;;;5005393;28;20065;-66
2020/12/25 04:48:37;;;;;;;3.70;3.25;;;10.60;68.20;;;;;;5005335;28;20026;-66
2020/12/25 04:51:04;;;;;;;4.68;3.55;;;10.60;68.10;;;;;;5005271;28;20310;-66
2020/12/25 04:53:34;;;;;;;5.63;3.70;;;10.60;68.30;;;;;;5005303;28;20316;-66
2020/12/25 04:55:59;;;;;;;4.65;3.28;;;10.60;68.30;;;;;;5005262;28;20029;-65
2020/12/25 04:58:25;;;;;;;4.95;3.28;;;10.60;68.10;;;;;;5005171;28;20072;-65
2020/12/25 05:01:05;;;;;;;4.22;3.45;;;10.60;68.10;;;;;;5005162;28;20045;-66
2020/12/25 05:03:36;;;;;;;4.80;3.70;;;10.60;68.30;;;;;;5005009;28;20029;-68
2020/12/25 05:06:08;;;;;;;5.15;3.80;;;10.60;68.30;;;;;;5003874;28;20028;-67
2020/12/25 05:08:39;;;;;;;4.53;3.60;;;10.60;68.40;;;;;;5004965;28;20026;-65
2020/12/25 05:11:06;;;;;;;4.28;3.50;;;10.60;68.30;;;;;;5004982;28;20029;-67
2020/12/25 05:13:32;;;;;;;5.55;3.33;;;10.60;68.40;;;;;;5004864;28;20113;-67
2020/12/25 05:15:58;;;;;;;4.38;3.33;;;10.60;68.30;;;;;;5004853;28;20022;-68
2020/12/25 05:18:29;;;;;;;6.10;4.03;;;10.60;68.50;;;;;;5004631;28;20065;-66
2020/12/25 05:20:57;;;;;;;4.88;3.30;;;10.60;68.50;;;;;;5004821;28;20038;-65
2020/12/25 05:23:31;;;;;;;4.57;3.42;;;10.60;68.40;;;;;;5004648;28;20096;-68
2020/12/25 05:26:00;;;;;;;3.53;3.00;;;10.50;68.40;;;;;;5004719;28;20237;-67
2020/12/25 05:28:29;;;;;;;4.65;3.72;;;10.60;68.30;;;;;;5004618;28;20265;-68
2020/12/25 05:30:59;;;;;;;3.78;3.20;;;10.60;68.20;;;;;;5004628;28;20030;-67
2020/12/25 05:33:25;;;;;;;5.03;3.72;;;10.60;68.40;;;;;;5004778;28;20101;-67
2020/12/25 05:35:54;;;;;;;3.95;3.20;;;10.60;68.30;;;;;;5004484;28;20018;-68
2020/12/25 05:38:23;;;;;;;4.83;3.67;;;10.60;68.30;;;;;;5004273;28;20026;-67
2020/12/25 05:40:49;;;;;;;;;;;10.60;68.40;;;;;;5004337;28;20618;-68
2020/12/25 05:43:17;;;;;;;4.38;3.80;;;10.60;68.50;;;;;;5004283;28;19916;-67
2020/12/25 05:45:43;;;;;;;4.13;3.70;;;10.60;68.40;;;;;;5004299;28;20356;-66
2020/12/25 05:48:09;;;;;;;4.50;3.25;;;10.50;68.30;;;;;;5004278;28;20038;-62
2020/12/25 05:50:36;;;;;;;5.25;3.28;;;10.60;68.40;;;;;;5004216;28;20045;-66
2020/12/25 05:53:03;;;;;;;4.05;3.40;;;10.60;68.50;;;;;;5004156;28;20030;-67
2020/12/25 05:55:30;;;;;;;4.53;3.53;;;10.60;68.30;;;;;;5004151;28;20421;-67
2020/12/25 05:57:56;;;;;;;3.83;3.20;;;10.60;68.30;;;;;;5004072;28;20041;-66
2020/12/25 06:00:26;;;;;;;5.15;3.17;;;10.60;68.40;;;;;;5004006;28;20025;-67
2020/12/25 06:02:55;;;;;;;4.68;3.55;;;10.60;68.30;;;;;;5004199;28;20029;-67
2020/12/25 06:05:24;;;;;;;4.78;3.70;;;10.60;68.30;;;;;;5003932;28;20025;-65
2020/12/25 06:07:57;;;;;;;4.50;3.10;;;10.60;68.40;;;;;;5003891;28;20022;-66
2020/12/25 06:10:25;;;;;;;3.55;2.88;;;10.60;68.30;;;;;;5003874;28;20015;-66
2020/12/25 06:12:52;;;;;;;4.47;3.22;;;10.60;68.40;;;;;;5003784;28;20018;-66
2020/12/25 06:15:26;;;;;;;3.40;3.08;;;10.60;68.40;;;;;;5003783;28;20027;-67
2020/12/25 06:18:34;;;;;;;4.95;3.58;;;10.60;68.40;;;;;;5003527;28;20050;-67
2020/12/25 06:21:03;;;;;;;3.63;3.05;;;10.60;68.30;;;;;;5011573;28;20250;-68
2020/12/25 06:23:30;;;;;;;3.83;3.25;;;10.60;68.30;;;;;;5003504;28;20098;-64
2020/12/25 06:25:56;;;;;;;3.72;3.17;;;10.60;68.30;;;;;;5003478;28;20011;-68
2020/12/25 06:28:22;;;;;;;4.63;3.67;;;10.60;68.30;;;;;;5003463;28;20029;-68
2020/12/25 06:30:49;;;;;;;3.83;3.20;;;10.60;68.40;;;;;;5003476;28;20017;-67
2020/12/25 06:33:15;;;;;;;6.22;3.58;;;10.60;68.30;;;;;;5003371;28;20273;-67
2020/12/25 06:35:45;;;;;;;4.60;3.40;;;10.60;68.80;;;;;;5003324;28;20037;-67
2020/12/25 06:38:12;;;;;;;4.18;3.08;;;10.60;68.20;;;;;;5003307;28;20057;-66
2020/12/25 06:40:38;;;;;;;3.78;3.17;;;10.60;68.10;;;;;;5003325;28;20014;-68
2020/12/25 06:43:20;;;;;;;4.68;3.70;;;10.60;68.10;;;;;;5003127;28;20030;-66
2020/12/25 06:46:02;;;;;;;3.65;3.10;;;10.60;68.20;;;;;;5003190;28;20021;-67
2020/12/25 06:48:29;;;;;;;4.63;3.50;;;10.60;68.20;;;;;;5003234;28;20391;-67
2020/12/25 06:51:00;;;;;;;3.47;3.00;;;10.60;68.20;;;;;;5003022;28;20044;-67
2020/12/25 06:53:42;;;;;;;4.35;3.63;;;10.60;68.20;;;;;;5003081;28;20034;-67
2020/12/25 06:56:20;;;;;;;3.55;2.90;;;10.60;68.10;;;;;;5003055;28;20026;-68
2020/12/25 06:58:58;;;;;;;4.40;3.17;;;10.60;68.30;;;;;;5003017;28;20053;-66
2020/12/25 07:01:38;;;;;;;5.93;2.78;;;10.60;68.20;;;;;;5002967;28;20034;-65
2020/12/25 07:04:04;;;;;;;3.97;3.28;;;10.60;68.10;;;;;;5002821;28;20030;-66
2020/12/25 07:06:31;;;;;;;4.45;3.03;;;10.70;68.00;;;;;;5002842;28;20032;-66
2020/12/25 07:09:10;;;;;;;4.93;3.63;;;10.70;68.00;;;;;;5002883;28;20042;-67
2020/12/25 07:11:37;;;;;;;4.95;3.30;;;10.70;67.90;;;;;;5002832;28;20023;-67
2020/12/25 07:14:03;;;;;;;3.65;3.35;;;10.70;67.90;;;;;;5002776;28;20069;-68
2020/12/25 07:16:30;;;;;;;3.92;3.20;;;10.60;67.80;;;;;;5002775;28;20207;-64
2020/12/25 07:18:55;;;;;;;4.05;3.50;;;10.60;67.80;;;;;;5002559;28;20050;-67
2020/12/25 07:21:21;;;;;;;5.40;3.30;;;10.60;67.80;;;;;;5002673;28;20341;-67
2020/12/25 07:23:47;;;;;;;4.20;3.28;;;10.60;67.80;;;;;;5002597;28;20022;-66
2020/12/25 07:26:13;;;;;;;4.68;3.60;;;10.60;67.70;;;;;;5002594;28;20014;-66
2020/12/25 07:28:40;;;;;;;4.30;2.75;;;10.60;67.90;;;;;;5002601;28;20045;-64
2020/12/25 07:31:06;;;;;;;4.18;2.88;;;10.60;67.90;;;;;;5001381;28;20214;-64
2020/12/25 07:33:32;;;;;;;4.53;3.42;;;10.60;67.90;;;;;;5002538;28;20045;-67
2020/12/25 07:35:58;;;;;;;3.60;3.08;;;10.60;67.80;;;;;;5002492;28;20322;-67
2020/12/25 07:38:25;;;;;;;4.25;3.00;;;10.60;67.90;;;;;;5002478;28;20037;-67
2020/12/25 07:40:51;;;;;;;5.05;3.33;;;10.60;67.70;;;;;;5002470;28;20310;-66
2020/12/25 07:43:17;;;;;;;3.80;3.33;;;10.70;67.60;;;;;;5002399;28;20033;-66
2020/12/25 07:45:43;;;;;;;3.97;3.17;;;10.70;67.60;;;;;;5002400;28;20018;-66
2020/12/25 07:48:09;;;;;;;5.50;3.50;;;10.70;67.50;;;;;;5002449;28;20030;-64
2020/12/25 07:50:39;;;;;;;3.65;3.13;;;10.70;67.50;;;;;;5002420;28;20026;-64
2020/12/25 07:53:09;;;;;;;4.00;3.42;;;10.70;67.50;;;;;;5002358;28;20072;-67
2020/12/25 07:55:35;;;;;;;3.92;3.45;;;10.70;67.50;;;;;;5002377;28;20034;-64
2020/12/25 07:58:02;;;;;;;4.05;3.28;;;10.70;67.60;;;;;;5002326;28;20329;-67
2020/12/25 08:00:28;;;;;;;4.03;3.30;;;10.70;67.60;;;;;;5002353;28;20018;-67
2020/12/25 08:02:54;;;;;;;3.63;3.33;;;10.70;67.60;;;;;;5003948;28;20026;-67
2020/12/25 08:05:20;;;;;;;4.20;3.28;;;10.70;67.50;;;;;;5006178;28;20375;-67
2020/12/25 08:07:47;;;;;;;3.78;2.78;;;10.70;67.40;;;;;;5004951;28;20238;-68
2020/12/25 08:10:16;;;;;;;4.15;3.17;;;10.70;67.40;;;;;;5006510;28;20073;-67
2020/12/25 08:12:49;;;;;;;4.85;3.28;;;10.70;67.50;;;;;;5006014;28;20026;-68
2020/12/25 08:15:16;;;;;;;4.18;3.60;;;10.70;67.50;;;;;;5005995;28;20026;-65
2020/12/25 08:17:44;;;;;;;3.95;3.47;;;10.70;67.30;;;;;;5005749;28;20077;-66
2020/12/25 08:20:10;;;;;;;4.50;3.33;;;10.70;67.30;;;;;;5005957;28;20031;-66
2020/12/25 08:22:37;;;;;;;4.60;3.30;;;10.70;67.30;;;;;;5005772;28;20073;-67
2020/12/25 08:25:03;;;;;;;4.60;3.17;;;10.80;67.20;;;;;;5005448;28;20018;-67
2020/12/25 08:27:32;;;;;;;4.55;3.05;;;10.80;67.20;;;;;;5005752;28;20230;-63
2020/12/25 08:30:03;;;;;;;4.43;3.13;;;10.80;67.10;;;;;;5005741;28;20018;-68
2020/12/25 08:32:30;;;;;;;4.20;3.47;;;10.80;67.20;;;;;;5005699;28;20337;-68
2020/12/25 08:35:13;;;;;;;4.88;3.25;;;10.80;67.10;;;;;;5005643;28;20026;-67
2020/12/25 08:37:39;;;;;;;3.92;3.10;;;10.80;66.90;;;;;;5005660;28;20309;-67
2020/12/25 08:40:23;;;;;;;4.40;3.00;;;10.80;67.00;;;;;;5004384;28;20030;-67
2020/12/25 08:42:50;;;;;;;5.20;3.55;;;10.80;67.00;;;;;;5005468;28;20092;-68
2020/12/25 08:45:21;;;;;;;4.07;2.72;;;10.80;66.90;;;;;;5005454;28;20085;-68
2020/12/25 08:48:03;;;;;;;4.20;3.17;;;10.90;66.90;;;;;;5005407;28;20041;-67
2020/12/25 08:50:29;;;;;;;3.92;2.97;;;10.90;66.90;;;;;;5005390;28;20026;-64
2020/12/25 08:53:18;;;;;;;4.18;2.90;;;10.90;66.90;;;;;;5005291;28;20030;-65
2020/12/25 08:55:45;;;;;;;4.32;2.85;;;10.90;67.00;;;;;;5005257;28;20026;-66
2020/12/25 08:58:15;;;;;;;4.18;3.58;;;10.80;66.90;;;;;;5005220;28;20031;-65
2020/12/25 09:00:40;;;;;;;4.55;3.20;;;10.90;66.90;;;;;;5005157;28;20082;-67
2020/12/25 09:03:06;;;;;;;3.40;3.10;;;10.90;67.00;;;;;;5005053;28;20025;-67
2020/12/25 09:05:32;;;;;;;4.57;3.40;;;10.90;67.00;;;;;;5005063;28;20064;-68
2020/12/25 09:07:57;;;;;;;3.40;2.60;;;10.90;67.00;;;;;;5005040;28;20061;-68
2020/12/25 09:10:23;;;;;;;3.85;3.08;;;10.90;67.00;;;;;;5004932;28;20041;-65
2020/12/25 09:12:49;;;;;;;5.00;2.80;;;10.90;67.10;;;;;;5004996;28;20026;-65
2020/12/25 09:15:15;;;;;;;5.15;3.40;;;10.90;67.10;;;;;;5003635;28;20116;-65
2020/12/25 09:17:41;;;;;;;3.20;2.72;;;10.80;67.10;;;;;;5004695;28;20250;-68
2020/12/25 09:20:06;;;;;;;4.05;3.05;;;10.80;67.10;;;;;;5004840;28;20378;-67
2020/12/25 09:22:32;;;;;;;3.45;2.90;;;10.80;67.20;;;;;;5004774;28;20518;-68
2020/12/25 09:24:58;;;;;;;3.75;2.92;;;10.80;67.00;;;;;;5004665;28;20106;-68
2020/12/25 09:27:24;;;;;;;3.40;2.80;;;10.80;67.10;;;;;;5004636;28;20234;-67
2020/12/25 09:29:49;;;;;;;3.20;2.80;;;10.80;67.10;;;;;;5004659;28;20023;-65
2020/12/25 09:32:15;;;;;;;4.07;2.88;;;10.90;67.00;;;;;;5004565;28;20027;-66
2020/12/25 09:34:41;;;;;;;4.18;3.13;;;10.90;67.10;;;;;;5004559;28;20107;-68
2020/12/25 09:37:06;;;;;;;3.45;3.15;;;10.90;67.00;;;;;;5004495;28;20495;-68
2020/12/25 09:39:32;;;;;;;3.88;3.20;;;10.90;67.00;;;;;;5004463;28;20018;-67
2020/12/25 09:41:58;;;;;;;3.72;3.30;;;10.90;66.90;;;;;;5004386;28;20022;-67
2020/12/25 09:44:24;;;;;;;4.03;2.83;;;10.90;66.90;;;;;;5004249;28;20034;-67
2020/12/25 09:46:49;;;;;;;2.95;2.65;;;10.90;66.90;;;;;;5004336;28;20207;-66
2020/12/25 09:49:15;;;;;;;3.65;3.03;;;10.90;66.80;;;;;;5004251;28;20034;-66
2020/12/25 09:51:41;;;;;;;4.40;3.20;;;10.90;66.80;;;;;;5004235;28;20034;-67
2020/12/25 09:54:06;;;;;;;3.40;2.67;;;10.90;66.90;;;;;;5004160;28;20033;-68
2020/12/25 09:56:32;;;;;;;3.50;3.00;;;10.90;66.80;;;;;;5004108;28;20369;-68
2020/12/25 09:58:58;;;;;;;2.70;2.47;;;10.90;66.80;;;;;;5002919;28;20314;-67
2020/12/25 10:01:23;;;;;;;3.33;2.67;;;10.90;67.00;;;;;;5004006;28;20085;-68
2020/12/25 10:03:49;;;;;;;3.47;2.95;;;10.90;67.00;;;;;;5002724;28;20058;-65
2020/12/25 10:06:19;;;;;;;3.78;3.10;;;10.90;67.00;;;;;;5003931;28;20034;-67
2020/12/25 10:08:45;;;;;;;4.80;3.47;;;10.90;66.90;;;;;;5003886;28;20022;-66
2020/12/25 10:11:11;;;;;;;3.65;2.88;;;10.90;67.00;;;;;;5003853;28;20037;-66
2020/12/25 10:13:37;;;;;;;3.70;3.15;;;10.90;67.00;;;;;;5003810;28;20068;-67
2020/12/25 10:16:02;;;;;;;3.13;2.70;;;11.00;66.90;;;;;;5003733;28;20246;-68
2020/12/25 10:18:28;;;;;;;3.60;2.90;;;10.90;66.90;;;;;;5003619;28;20125;-68
2020/12/25 10:20:54;;;;;;;3.25;2.67;;;10.90;66.90;;;;;;5003663;28;20226;-65
2020/12/25 10:23:19;;;;;;;3.65;2.42;;;11.00;66.90;;;;;;5003546;28;20033;-67
2020/12/25 10:25:45;;;;;;;3.80;2.97;;;10.90;66.80;;;;;;5003227;28;20026;-64
2020/12/25 10:28:11;;;;;;;3.20;2.90;;;11.00;66.70;;;;;;5003546;28;20038;-68
2020/12/25 10:30:37;;;;;;;3.28;2.95;;;11.10;66.70;;;;;;5003524;28;20273;-67
2020/12/25 10:33:02;;;;;;;2.67;2.47;;;11.00;66.70;;;;;;5003449;28;20090;-68
2020/12/25 10:35:28;;;;;;;3.42;2.83;;;11.00;66.70;;;;;;5003460;28;20041;-67
2020/12/25 10:37:54;;;;;;;3.08;2.60;;;11.00;66.70;;;;;;5003329;28;20053;-67
2020/12/25 10:40:19;;;;;;;4.88;2.80;;;11.00;66.80;;;;;;5002135;28;20329;-67
2020/12/25 10:42:45;;;;;;;3.67;2.83;;;11.00;66.80;;;;;;5003221;28;20026;-67
2020/12/25 10:45:11;;;;;;;2.30;2.10;;;11.00;66.90;;;;;;5003253;28;20096;-65
2020/12/25 10:47:37;;;;;;;3.40;2.78;;;11.00;66.80;;;;;;5003217;28;20022;-67
2020/12/25 10:50:03;;;;;;;4.20;3.38;;;11.10;66.70;;;;;;5003216;28;20014;-68
2020/12/25 10:52:28;;;;;;;3.15;2.70;;;11.10;66.60;;;;;;5003164;28;20025;-67
2020/12/25 10:54:54;;;;;;;4.43;3.40;;;11.10;66.70;;;;;;5003091;28;20374;-67
2020/12/25 10:57:20;;;;;;;3.28;2.42;;;11.10;66.70;;;;;;5003098;28;20227;-67
2020/12/25 10:59:48;;;;;;;3.63;2.80;;;11.10;66.80;;;;;;5003011;28;20034;-68
2020/12/25 11:02:14;;;;;;;2.95;2.60;;;11.00;66.80;;;;;;5003017;28;20253;-67
2020/12/25 11:04:40;;;;;;;3.78;2.70;;;11.10;66.90;;;;;;5002887;28;20041;-67
2020/12/25 11:07:06;;;;;;;3.92;3.17;;;11.10;66.90;;;;;;5002907;28;20246;-67
2020/12/25 11:09:31;;;;;;;4.07;2.88;;;11.10;66.80;;;;;;5002879;28;20018;-66
2020/12/25 11:11:57;;;;;;;3.67;3.03;;;11.10;66.90;;;;;;5002870;28;20329;-66
2020/12/25 11:14:23;;;;;;;3.30;3.00;;;11.00;66.80;;;;;;5002775;28;20022;-64
2020/12/25 11:16:48;;;;;;;4.05;2.90;;;11.00;67.00;;;;;;5002662;28;20097;-67
2020/12/25 11:19:16;;;;;;;5.05;3.13;;;11.00;67.00;;;;;;5002716;28;20368;-68
2020/12/25 11:21:42;;;;;;;3.30;2.50;;;11.00;67.00;;;;;;5002690;28;20018;-67
2020/12/25 11:24:11;;;;;;;3.72;3.20;;;11.00;67.10;;;;;;5002626;28;20099;-67
2020/12/25 11:26:36;;;;;;;;;;;11.00;67.00;;;;;;5003117;28;20202;-68
2020/12/25 11:29:07;;;;;;;3.60;3.30;;;11.00;67.10;;;;;;5002687;28;19901;-67
2020/12/25 11:31:34;;;;;;;3.13;2.30;;;11.00;66.90;;;;;;5002612;28;20018;-67
2020/12/25 11:34:00;;;;;;;2.88;2.42;;;11.00;66.90;;;;;;5002636;28;20269;-68
2020/12/25 11:36:28;;;;;;;3.35;2.80;;;11.00;66.90;;;;;;5003197;28;20333;-67
2020/12/25 11:38:55;;;;;;;3.55;2.72;;;11.00;66.90;;;;;;5008732;28;20034;-65
2020/12/25 11:41:22;;;;;;;4.20;2.58;;;11.00;66.90;;;;;;5009062;28;20273;-67
2020/12/25 11:43:49;;;;;;;3.08;2.72;;;11.00;67.00;;;;;;5008111;28;20310;-67
2020/12/25 11:46:15;;;;;;;5.03;3.00;;;11.00;67.00;;;;;;5009048;28;20092;-67
2020/12/25 11:48:42;;;;;;;4.47;3.10;;;11.10;66.90;;;;;;5008972;28;20187;-67
2020/12/25 11:51:09;;;;;;;4.10;3.30;;;11.00;66.90;;;;;;5008998;28;20023;-67
2020/12/25 11:53:37;;;;;;;4.30;2.92;;;11.10;66.90;;;;;;5008933;28;20026;-68
2020/12/25 11:56:04;;;;;;;3.65;3.00;;;11.00;66.90;;;;;;5008929;28;20322;-65
2020/12/25 11:58:30;;;;;;;3.08;2.60;;;11.10;66.90;;;;;;5008957;28;20348;-67
2020/12/25 12:00:55;;;;;;;4.05;2.92;;;11.10;66.90;;;;;;5007689;28;20052;-66
2020/12/25 12:03:23;;;;;;;3.25;2.95;;;11.10;67.00;;;;;;5008799;28;20018;-67
2020/12/25 12:05:49;;;;;;;2.60;2.40;;;11.10;67.00;;;;;;5008861;28;20032;-65
2020/12/25 12:08:15;;;;;;;3.33;2.92;;;11.10;66.90;;;;;;5008793;28;20288;-66
2020/12/25 12:10:41;;;;;;;3.00;2.67;;;11.10;66.70;;;;;;5008856;28;20081;-66
2020/12/25 12:13:07;;;;;;;4.20;3.17;;;11.10;66.70;;;;;;5008836;28;20329;-68
2020/12/25 12:15:40;;;;;;;3.65;3.03;;;11.10;66.70;;;;;;5008762;28;20029;-67
2020/12/25 12:18:07;;;;;;;3.78;2.75;;;11.10;66.80;;;;;;5008602;28;20050;-67
2020/12/25 12:20:34;;;;;;;3.75;2.83;;;11.10;66.90;;;;;;5008744;28;20077;-67
2020/12/25 12:23:00;;;;;;;3.80;2.80;;;11.00;66.90;;;;;;5008620;28;20020;-66
2020/12/25 12:25:27;;;;;;;3.80;3.13;;;11.00;67.00;;;;;;5008734;28;20258;-67
2020/12/25 12:27:53;;;;;;;3.10;2.80;;;11.00;67.10;;;;;;5008696;28;20011;-67
2020/12/25 12:30:19;;;;;;;3.22;2.75;;;11.00;67.00;;;;;;5008676;28;20037;-68
2020/12/25 12:32:45;;;;;;;3.13;2.60;;;11.00;67.10;;;;;;5008671;28;20014;-67
2020/12/25 12:35:10;;;;;;;3.97;2.83;;;11.00;67.00;;;;;;5008623;28;20030;-66
2020/12/25 12:37:36;;;;;;;3.72;2.65;;;11.00;67.10;;;;;;5008583;28;20198;-67
2020/12/25 12:40:04;;;;;;;3.38;3.08;;;11.00;67.10;;;;;;5008592;28;20027;-67
2020/12/25 12:42:32;;;;;;;4.68;3.42;;;11.00;67.10;;;;;;5008548;28;20022;-64
2020/12/25 12:44:58;;;;;;;3.30;2.80;;;11.00;67.20;;;;;;5008490;28;20078;-67
2020/12/25 12:47:23;;;;;;;4.28;3.03;;;11.00;67.20;;;;;;5008454;28;20029;-67
2020/12/25 12:49:49;;;;;;;3.22;2.92;;;11.10;67.10;;;;;;5005568;28;20030;-66